Roaring Creek, North Carolina
Current Conditions -  °F | °C
As of 11:35 PM on Thursday 20 Nov 2014 (Local Time) from KTNB Reporting Station
Clear Clear  
Wind Chill: 22°   Ceiling: Unl
Heat Index: 33°   Visibility: 10mi
Dew Point: 17°   Wind: 18mph
Humidity: 52%   Direction: 300°WNW
Pressure: 30.1"   Gusts: 25mph
Location:  36.0227°N, 81.9499°W
Report Text: KTNB 210435Z AUTO 30016G22KT 10SM CLR 01/M08 A3010 RMK AO2 T00071082
Loading
Personal Weather Stations






























Interactive Weather Map New forecast layout! Learn more

10-Day Weather Forecast

Advertisements
Track Severe Weather on mobile